Time;durP1;ratioP1;P1;durP2;ratioP2;P2;SDS_P1;SDS_P2;PMS_P1;PMS_P2;Temp;Humidity;BMP_temperature;BMP_pressure;BME280_temperature;BME280_humidity;BME280_pressure;Samples;Min_cycle;Max_cycle;Signal;HPM_P1;HPM_P2
2022/01/24 00:00:53;;;;;;;117.25;60.85;;;1.00;68.30;;;;;;5074692;28;20021;-20
2022/01/24 00:03:19;;;;;;;86.53;43.15;;;1.00;69.50;;;;;;5072531;28;20443;-20
2022/01/24 00:05:45;;;;;;;89.85;44.47;;;1.00;70.00;;;;;;5074333;28;20481;-20
2022/01/24 00:08:11;;;;;;;81.05;42.17;;;1.00;68.60;;;;;;5074099;28;20028;-20
2022/01/24 00:10:39;;;;;;;102.43;52.33;;;1.00;68.50;;;;;;5074433;28;20067;-20
2022/01/24 00:15:59;;;;;;;102.90;53.97;;;1.10;69.20;;;;;;5074706;28;20029;-20
2022/01/24 00:26:39;;;;;;;91.95;48.38;;;1.00;70.10;;;;;;5073777;28;20072;-21
2022/01/24 00:26:47;;;;;;;53.78;27.85;;;0.90;68.30;;;;;;5073944;28;20036;-29
2022/01/24 00:29:18;;;;;;;47.63;23.40;;;0.90;68.40;;;;;;5073823;28;20029;-20
2022/01/24 00:31:46;;;;;;;38.15;20.27;;;0.90;67.70;;;;;;5073686;28;20595;-20
2022/01/24 00:34:13;;;;;;;52.95;27.67;;;0.90;67.30;;;;;;5074020;28;20353;-20
2022/01/24 00:36:40;;;;;;;70.05;35.90;;;0.90;67.70;;;;;;5074315;28;20119;-19
2022/01/24 00:39:06;;;;;;;84.18;43.13;;;0.90;68.30;;;;;;5073564;28;20082;-20
2022/01/24 00:46:56;;;;;;;83.93;41.67;;;0.80;69.30;;;;;;5073596;28;20032;-20
2022/01/24 00:49:46;;;;;;;72.57;35.72;;;0.80;69.60;;;;;;5073514;28;20460;-20
2022/01/24 00:55:00;;;;;;;78.00;36.78;;;0.80;68.80;;;;;;5073580;28;20039;-20
2022/01/24 00:57:26;;;;;;;59.38;29.00;;;0.80;68.30;;;;;;5073284;28;20029;-20
2022/01/24 00:59:52;;;;;;;31.20;15.63;;;0.80;69.80;;;;;;5073454;28;20024;-20
2022/01/24 01:02:19;;;;;;;31.10;16.80;;;0.80;68.40;;;;;;5072989;28;20039;-20
2022/01/24 01:07:11;;;;;;;50.55;26.08;;;0.90;67.20;;;;;;5073612;28;20543;-20
2022/01/24 01:23:25;;;;;;;73.38;34.58;;;0.80;67.70;;;;;;5071101;28;20074;-20
2022/01/24 01:25:53;;;;;;;42.15;16.90;;;0.80;68.70;;;;;;5071245;28;20028;-20
2022/01/24 01:28:21;;;;;;;60.30;27.65;;;0.70;67.50;;;;;;5070802;28;20404;-20
2022/01/24 01:30:51;;;;;;;43.88;20.77;;;0.70;68.50;;;;;;5070885;28;20025;-20
2022/01/24 01:57:18;;;;;;;72.45;33.38;;;0.60;69.00;;;;;;5072707;28;20003;-18
2022/01/24 01:59:45;;;;;;;59.10;32.40;;;0.60;67.90;;;;;;5072775;28;20374;-18
2022/01/24 02:02:12;;;;;;;62.58;32.08;;;0.60;68.30;;;;;;5072731;28;20032;-19
2022/01/24 02:04:40;;;;;;;39.20;19.02;;;0.60;68.30;;;;;;5072640;28;20028;-19
2022/01/24 02:07:14;;;;;;;60.00;30.63;;;0.60;68.10;;;;;;5072745;28;20020;-19
2022/01/24 02:09:42;;;;;;;67.82;33.53;;;0.50;67.40;;;;;;5072448;28;20427;-19
2022/01/24 02:12:10;;;;;;;65.50;33.55;;;0.50;68.10;;;;;;5072895;28;20074;-19
2022/01/24 02:14:41;;;;;;;66.35;33.47;;;0.40;67.70;;;;;;5072313;28;20032;-19
2022/01/24 02:17:15;;;;;;;70.65;33.22;;;0.40;67.90;;;;;;5072474;28;20099;-19
2022/01/24 02:25:00;;;;;;;70.88;33.03;;;0.20;68.90;;;;;;5073126;28;20064;-18
2022/01/24 02:27:33;;;;;;;69.30;32.30;;;0.20;69.30;;;;;;5076275;28;20017;-19
2022/01/24 02:30:39;;;;;;;34.72;17.42;;;0.10;69.10;;;;;;5076372;28;20043;-19
2022/01/24 02:32:59;;;;;;;53.47;24.85;;;0.10;68.70;;;;;;5075849;28;20024;-18
2022/01/24 02:35:25;;;;;;;51.85;23.27;;;0.00;68.80;;;;;;5075977;28;20039;-19
2022/01/24 02:37:52;;;;;;;57.72;24.55;;;0.00;68.80;;;;;;5075854;28;20035;-19
2022/01/24 02:40:19;;;;;;;53.35;25.52;;;0.00;68.60;;;;;;5075621;28;20103;-19
2022/01/24 02:53:34;;;;;;;17.55;8.85;;;0.00;68.80;;;;;;5075786;28;20070;-19
2022/01/24 02:56:00;;;;;;;15.88;7.93;;;0.00;68.40;;;;;;5075989;28;20519;-19
2022/01/24 02:58:27;;;;;;;19.58;10.43;;;0.00;68.00;;;;;;5075344;28;20032;-19
2022/01/24 03:00:55;;;;;;;19.48;10.02;;;0.00;67.80;;;;;;5074365;28;20075;-19
2022/01/24 03:03:21;;;;;;;40.08;19.13;;;0.00;67.70;;;;;;5075541;28;20032;-19
2022/01/24 03:05:47;;;;;;;26.85;12.98;;;0.00;68.10;;;;;;5075539;28;20048;-19
2022/01/24 03:08:14;;;;;;;35.33;17.05;;;0.00;68.50;;;;;;5075217;28;20476;-19
2022/01/24 03:10:46;;;;;;;53.22;26.65;;;0.00;68.60;;;;;;5075734;28;20079;-19
2022/01/24 03:15:41;;;;;;;46.90;21.35;;;0.00;69.80;;;;;;5075383;28;20028;-19
2022/01/24 03:18:07;;;;;;;44.05;21.38;;;0.00;69.00;;;;;;5075213;28;20037;-19
2022/01/24 03:20:34;;;;;;;30.63;16.13;;;0.00;68.50;;;;;;5074993;28;20032;-19
2022/01/24 03:23:03;;;;;;;32.75;17.67;;;0.00;68.30;;;;;;5076370;28;20032;-19
2022/01/24 03:25:29;;;;;;;28.10;13.23;;;0.00;68.10;;;;;;5075072;28;20025;-19
2022/01/24 03:27:56;;;;;;;47.20;22.45;;;0.00;68.00;;;;;;5075044;28;20023;-19
2022/01/24 03:30:24;;;;;;;30.85;14.90;;;0.00;68.70;;;;;;5073634;28;20073;-20
2022/01/24 03:32:50;;;;;;;33.83;14.23;;;0.00;68.40;;;;;;5075282;28;20028;-19
2022/01/24 03:35:17;;;;;;;21.02;9.57;;;0.00;68.40;;;;;;5075284;28;20029;-19
2022/01/24 03:37:43;;;;;;;17.83;7.85;;;0.00;67.80;;;;;;5075027;28;20461;-19
2022/01/24 03:40:10;;;;;;;30.67;13.90;;;0.00;67.50;;;;;;5074771;28;20383;-19
2022/01/24 03:42:37;;;;;;;41.30;20.98;;;0.00;67.30;;;;;;5074591;28;20035;-19
2022/01/24 03:45:07;;;;;;;42.25;21.45;;;0.00;67.50;;;;;;5075104;28;20033;-19
2022/01/24 03:50:17;;;;;;;43.38;19.67;;;-0.10;67.90;;;;;;5075197;28;20028;-19
2022/01/24 03:52:44;;;;;;;19.95;9.75;;;-0.20;67.30;;;;;;5074663;28;20044;-19
2022/01/24 03:55:11;;;;;;;29.58;14.57;;;-0.20;67.30;;;;;;5074439;28;20485;-19
2022/01/24 03:57:37;;;;;;;37.35;17.33;;;-0.20;67.60;;;;;;5074596;28;20032;-19
2022/01/24 04:00:06;;;;;;;18.50;8.25;;;-0.30;67.80;;;;;;5074435;28;20111;-19
2022/01/24 04:02:32;;;;;;;23.15;11.57;;;-0.30;67.40;;;;;;5074272;28;20032;-19
2022/01/24 04:04:59;;;;;;;29.70;13.65;;;-0.30;67.30;;;;;;5075185;28;20039;-19
2022/01/24 04:07:25;;;;;;;43.13;21.95;;;-0.20;67.30;;;;;;5073117;28;20032;-19
2022/01/24 04:09:51;;;;;;;50.53;23.38;;;-0.30;67.80;;;;;;5074131;28;20024;-19
2022/01/24 04:12:17;;;;;;;45.92;21.73;;;-0.30;68.60;;;;;;5073999;28;20039;-19
2022/01/24 04:22:14;;;;;;;25.88;12.65;;;-0.30;68.00;;;;;;5074398;28;20041;-19
2022/01/24 04:24:41;;;;;;;26.73;11.73;;;-0.30;68.20;;;;;;5073952;28;20103;-19
2022/01/24 04:27:08;;;;;;;50.53;25.48;;;-0.30;67.80;;;;;;5073997;28;20029;-19
2022/01/24 04:29:35;;;;;;;51.05;25.15;;;-0.30;67.50;;;;;;5073841;28;20025;-19
2022/01/24 04:32:02;;;;;;;38.20;18.92;;;-0.30;69.30;;;;;;5074444;28;20469;-19
2022/01/24 04:34:28;;;;;;;36.70;17.60;;;-0.40;68.60;;;;;;5073516;28;20020;-19
2022/01/24 04:36:54;;;;;;;31.30;14.15;;;-0.40;67.90;;;;;;5073638;28;20027;-19
2022/01/24 04:39:21;;;;;;;25.67;11.93;;;-0.40;68.20;;;;;;5073596;28;20078;-18
2022/01/24 04:41:51;;;;;;;25.38;12.73;;;-0.50;68.30;;;;;;5072473;28;20029;-19
2022/01/24 04:52:32;;;;;;;18.55;8.82;;;-0.60;68.70;;;;;;5073175;28;20614;-19
2022/01/24 04:54:57;;;;;;;21.95;10.40;;;-0.60;68.30;;;;;;5073631;28;20544;-19
2022/01/24 04:57:28;;;;;;;21.20;9.20;;;-0.60;68.00;;;;;;5073663;28;20116;-19
2022/01/24 04:59:57;;;;;;;37.90;17.58;;;-0.60;68.00;;;;;;5073428;28;20060;-19
2022/01/24 05:02:24;;;;;;;58.63;27.77;;;-0.70;68.10;;;;;;5073482;28;20024;-19
2022/01/24 05:04:56;;;;;;;70.75;31.13;;;-0.70;70.80;;;;;;5073632;28;20051;-19
2022/01/24 05:07:23;;;;;;;64.45;29.60;;;-0.80;69.60;;;;;;5073608;28;20024;-19
2022/01/24 05:25:56;;;;;;;42.10;19.30;;;-0.50;70.20;;;;;;5073194;28;20029;-19
2022/01/24 05:28:22;;;;;;;52.42;27.52;;;-0.50;70.00;;;;;;5072784;28;20032;-19
2022/01/24 05:30:49;;;;;;;35.65;17.10;;;-0.50;70.20;;;;;;5073043;28;20086;-19
2022/01/24 05:33:15;;;;;;;40.05;16.92;;;-0.50;70.20;;;;;;5073388;28;20107;-19
2022/01/24 05:35:41;;;;;;;20.13;8.88;;;-0.50;69.30;;;;;;5072903;28;20037;-19
2022/01/24 05:38:07;;;;;;;52.92;27.27;;;-0.50;68.80;;;;;;5072811;28;20123;-19
2022/01/24 05:40:34;;;;;;;18.55;8.82;;;-0.50;69.20;;;;;;5072602;28;20024;-19
2022/01/24 05:43:00;;;;;;;32.50;14.43;;;-0.50;69.10;;;;;;5073785;28;20073;-19
2022/01/24 05:45:25;;;;;;;26.77;11.77;;;-0.50;68.50;;;;;;5072864;28;20123;-18
2022/01/24 05:47:51;;;;;;;22.98;9.80;;;-0.50;68.40;;;;;;5073130;28;20028;-19
2022/01/24 05:50:17;;;;;;;30.98;15.85;;;-0.60;68.20;;;;;;5072394;28;20450;-20
2022/01/24 05:52:43;;;;;;;27.83;14.77;;;-0.60;67.90;;;;;;5071583;28;20124;-19
2022/01/24 05:55:09;;;;;;;26.30;12.13;;;-0.60;68.20;;;;;;5071422;28;20472;-19
2022/01/24 05:57:36;;;;;;;37.03;18.63;;;-0.60;68.30;;;;;;5072661;28;20032;-19
2022/01/24 06:00:09;;;;;;;34.65;15.40;;;-0.70;68.30;;;;;;5073755;28;20439;-19
2022/01/24 06:02:34;;;;;;;26.70;11.50;;;-0.70;68.20;;;;;;5076827;28;20036;-19
2022/01/24 06:05:00;;;;;;;15.63;6.88;;;-0.70;68.00;;;;;;5077775;28;20024;-19
2022/01/24 06:07:26;;;;;;;28.88;16.52;;;-0.80;67.90;;;;;;5076941;28;20036;-19
2022/01/24 06:09:52;;;;;;;15.45;7.60;;;-0.80;67.90;;;;;;5076790;28;20029;-19
2022/01/24 06:12:18;;;;;;;31.05;14.80;;;-0.80;67.90;;;;;;5076300;28;20036;-18
2022/01/24 06:14:45;;;;;;;14.32;7.15;;;-0.90;67.90;;;;;;5076868;28;20027;-19
2022/01/24 06:17:12;;;;;;;18.27;7.25;;;-0.90;67.90;;;;;;5076670;28;20488;-19
2022/01/24 06:19:38;;;;;;;38.50;19.77;;;-0.90;67.80;;;;;;5076702;28;20027;-19
2022/01/24 06:22:04;;;;;;;40.15;21.00;;;-0.90;68.00;;;;;;5076697;28;20035;-19
2022/01/24 06:24:30;;;;;;;16.45;7.72;;;-0.90;68.00;;;;;;5076041;28;20120;-19
2022/01/24 06:26:56;;;;;;;16.30;8.10;;;-0.90;67.90;;;;;;5076271;28;20064;-19
2022/01/24 06:29:22;;;;;;;18.50;8.23;;;-0.90;67.70;;;;;;5076499;28;20051;-19
2022/01/24 06:31:48;;;;;;;36.05;16.00;;;-0.80;67.60;;;;;;5076300;28;20108;-19
2022/01/24 06:34:14;;;;;;;19.90;10.38;;;-0.90;67.60;;;;;;5076201;28;20025;-19
2022/01/24 06:36:40;;;;;;;51.28;25.42;;;-0.90;67.60;;;;;;5076024;28;20549;-19
2022/01/24 06:39:07;;;;;;;27.80;13.02;;;-0.90;67.70;;;;;;5076142;28;20028;-19
2022/01/24 06:41:35;;;;;;;45.13;22.15;;;-0.90;67.90;;;;;;5076260;28;20098;-19
2022/01/24 06:44:02;;;;;;;39.58;18.30;;;-0.90;68.30;;;;;;5076226;28;20059;-19
2022/01/24 06:46:29;;;;;;;46.35;20.92;;;-0.90;68.40;;;;;;5075695;28;20036;-18
2022/01/24 06:48:57;;;;;;;63.63;30.35;;;-1.00;69.00;;;;;;5076460;28;20480;-19
2022/01/24 06:51:23;;;;;;;37.28;17.98;;;-1.00;69.90;;;;;;5075515;28;20060;-19
2022/01/24 06:53:50;;;;;;;37.42;16.40;;;-1.00;69.80;;;;;;5075901;28;20147;-19
2022/01/24 06:56:17;;;;;;;25.52;11.93;;;-1.00;69.10;;;;;;5075815;28;20028;-18
2022/01/24 06:58:43;;;;;;;37.63;19.08;;;-1.00;69.00;;;;;;5076236;28;20031;-19
2022/01/24 07:01:09;;;;;;;29.02;14.40;;;-1.10;69.30;;;;;;5076011;28;20043;-19
2022/01/24 07:03:35;;;;;;;44.28;20.30;;;-1.10;69.20;;;;;;5074470;28;20388;-19
2022/01/24 07:06:02;;;;;;;27.48;13.77;;;-1.10;69.50;;;;;;5075471;28;20024;-19
2022/01/24 07:08:29;;;;;;;18.23;7.82;;;-1.10;69.20;;;;;;5075219;28;20021;-19
2022/01/24 07:10:55;;;;;;;14.82;7.18;;;-1.10;68.80;;;;;;5073847;28;20062;-19
2022/01/24 07:13:21;;;;;;;32.45;17.05;;;-1.10;68.60;;;;;;5075018;28;20021;-19
2022/01/24 07:15:57;;;;;;;37.45;19.20;;;-1.10;68.70;;;;;;5075366;28;20035;-18
2022/01/24 07:20:57;;;;;;;65.28;30.58;;;-1.00;70.40;;;;;;5075359;28;20111;-19
2022/01/24 07:23:23;;;;;;;39.20;18.92;;;-1.00;71.40;;;;;;5073932;28;20070;-19
2022/01/24 07:25:49;;;;;;;39.03;20.65;;;-0.90;70.30;;;;;;5075173;28;20020;-19
2022/01/24 07:28:16;;;;;;;21.67;10.95;;;-0.90;69.50;;;;;;5075073;28;20104;-19
2022/01/24 07:30:43;;;;;;;69.18;33.88;;;-0.80;69.30;;;;;;5075576;28;20032;-19
2022/01/24 07:33:11;;;;;;;43.00;20.58;;;-0.70;69.40;;;;;;5075345;28;20384;-19
2022/01/24 07:35:37;;;;;;;48.75;25.35;;;-0.60;70.10;;;;;;5075595;28;20044;-19
2022/01/24 07:38:05;;;;;;;20.40;9.60;;;-0.50;69.90;;;;;;5074889;28;20564;-19
2022/01/24 07:40:39;;;;;;;22.15;9.27;;;-0.50;69.10;;;;;;5074622;28;20278;-18
2022/01/24 07:43:12;;;;;;;42.22;21.02;;;-0.40;68.60;;;;;;5075209;28;20040;-19
2022/01/24 07:45:42;;;;;;;24.33;11.15;;;-0.30;68.60;;;;;;5075157;28;20105;-19
2022/01/24 07:48:08;;;;;;;46.45;21.60;;;-0.20;68.90;;;;;;5074698;28;20024;-19
2022/01/24 07:50:37;;;;;;;63.30;26.60;;;-0.10;69.40;;;;;;5074394;28;20555;-19
2022/01/24 07:53:06;;;;;;;44.55;19.48;;;-0.10;69.10;;;;;;5074699;28;20028;-18
2022/01/24 07:55:32;;;;;;;42.10;18.92;;;0.00;68.50;;;;;;5074474;28;20024;-19
2022/01/24 07:57:58;;;;;;;74.50;36.65;;;0.00;68.70;;;;;;5074415;28;20032;-19
2022/01/24 08:00:24;;;;;;;39.17;19.60;;;0.00;69.90;;;;;;5074597;28;20032;-19
2022/01/24 08:02:50;;;;;;;51.28;24.60;;;0.10;69.40;;;;;;5074466;28;20021;-19
2022/01/24 08:05:16;;;;;;;66.78;33.08;;;0.30;68.90;;;;;;5074359;28;20025;-19
2022/01/24 08:07:43;;;;;;;57.72;27.23;;;0.40;69.90;;;;;;5074333;28;20027;-19
2022/01/24 08:10:09;;;;;;;49.33;25.58;;;0.50;69.80;;;;;;5074214;28;20023;-19
2022/01/24 08:12:36;;;;;;;53.25;28.67;;;0.60;69.30;;;;;;5074032;28;20511;-19
2022/01/24 08:15:04;;;;;;;49.88;27.63;;;0.80;69.00;;;;;;5074239;28;20029;-19
2022/01/24 08:17:30;;;;;;;26.17;13.07;;;0.90;69.70;;;;;;5074426;28;20107;-19
2022/01/24 08:19:57;;;;;;;26.17;12.88;;;1.00;68.70;;;;;;5074030;28;20024;-19
2022/01/24 08:22:24;;;;;;;24.55;12.77;;;1.10;68.10;;;;;;5072795;28;20021;-19
2022/01/24 08:24:51;;;;;;;31.95;15.80;;;1.30;67.70;;;;;;5073886;28;20086;-19
2022/01/24 08:27:18;;;;;;;33.35;16.23;;;1.40;67.60;;;;;;5074272;28;20082;-19
2022/01/24 08:29:48;;;;;;;45.10;23.40;;;1.50;68.20;;;;;;5074153;28;20066;-19
2022/01/24 08:32:16;;;;;;;67.80;33.47;;;1.70;68.50;;;;;;5073664;28;20074;-20
2022/01/24 08:34:42;;;;;;;47.50;24.98;;;1.80;68.10;;;;;;5074092;28;20025;-19
2022/01/24 08:37:08;;;;;;;64.32;34.20;;;1.90;67.90;;;;;;5073989;28;20025;-19
2022/01/24 08:39:34;;;;;;;47.92;25.90;;;2.00;68.40;;;;;;5073839;28;20541;-19
2022/01/24 08:42:11;;;;;;;71.32;35.83;;;2.20;68.00;;;;;;5073985;28;20024;-19
2022/01/24 08:47:30;;;;;;;75.30;40.92;;;2.40;70.40;;;;;;5074287;28;20500;-19
2022/01/24 08:50:20;;;;;;;70.93;33.95;;;2.60;69.20;;;;;;5073577;28;20035;-19
2022/01/24 08:52:46;;;;;;;75.72;38.15;;;2.80;68.50;;;;;;5051564;28;20048;-20
2022/01/24 08:55:12;;;;;;;57.88;31.48;;;2.90;70.40;;;;;;5051402;28;20116;-20
2022/01/24 08:57:40;;;;;;;75.18;39.25;;;3.10;68.20;;;;;;5051840;28;20114;-20
2022/01/24 09:00:07;;;;;;;89.95;44.78;;;3.20;69.30;;;;;;5051353;28;20044;-20
2022/01/24 09:02:35;;;;;;;70.35;38.80;;;3.50;68.90;;;;;;5051262;28;20036;-20
2022/01/24 09:05:02;;;;;;;78.15;39.90;;;3.60;68.80;;;;;;5051234;28;20033;-20
2022/01/24 09:07:30;;;;;;;74.30;39.35;;;3.80;68.80;;;;;;5051312;28;20075;-20
2022/01/24 09:09:57;;;;;;;53.20;28.00;;;3.90;68.10;;;;;;5051363;28;20032;-19
2022/01/24 09:12:23;;;;;;;80.45;40.78;;;4.10;66.90;;;;;;5051012;28;20033;-20
2022/01/24 09:14:51;;;;;;;71.70;37.67;;;4.20;67.70;;;;;;5052001;28;20040;-20
2022/01/24 09:17:17;;;;;;;59.22;30.77;;;4.40;67.20;;;;;;5050976;28;20029;-20
2022/01/24 09:19:43;;;;;;;76.25;38.90;;;4.60;66.80;;;;;;5051097;28;20032;-20
2022/01/24 09:22:10;;;;;;;72.72;37.50;;;4.80;67.20;;;;;;5051018;28;20059;-20
2022/01/24 09:24:37;;;;;;;62.58;33.28;;;4.90;66.60;;;;;;5050023;28;20519;-20
2022/01/24 09:27:05;;;;;;;72.82;37.45;;;5.00;66.60;;;;;;5073155;28;20032;-21
2022/01/24 09:29:31;;;;;;;74.57;38.60;;;5.20;66.20;;;;;;5073371;28;20029;-20
2022/01/24 09:31:57;;;;;;;85.57;43.45;;;5.40;66.00;;;;;;5073249;28;20483;-20
2022/01/24 09:34:23;;;;;;;75.28;36.40;;;5.50;66.10;;;;;;5072027;28;20039;-21
2022/01/24 09:36:50;;;;;;;65.55;34.95;;;5.70;65.70;;;;;;5072880;28;20028;-21
2022/01/24 09:39:17;;;;;;;58.58;31.20;;;5.90;65.10;;;;;;5072800;28;20500;-20
2022/01/24 09:41:45;;;;;;;74.68;39.55;;;6.00;64.80;;;;;;5073774;28;20013;-21
2022/01/24 09:44:11;;;;;;;71.25;37.65;;;6.20;64.70;;;;;;5072918;28;20044;-20
2022/01/24 09:46:40;;;;;;;67.35;35.67;;;6.40;64.70;;;;;;5073426;28;20086;-21
2022/01/24 09:49:07;;;;;;;74.50;38.42;;;6.50;64.30;;;;;;5073175;28;20028;-20
2022/01/24 09:51:33;;;;;;;57.55;31.10;;;6.70;64.00;;;;;;5072756;28;20091;-21
2022/01/24 09:54:03;;;;;;;68.78;33.70;;;6.80;63.80;;;;;;5072691;28;20036;-20
2022/01/24 09:56:29;;;;;;;63.80;32.13;;;7.00;63.50;;;;;;5072563;28;20469;-20
2022/01/24 09:58:55;;;;;;;66.88;35.35;;;7.10;63.30;;;;;;5072691;28;20062;-20
2022/01/24 10:01:21;;;;;;;61.50;33.25;;;7.20;63.20;;;;;;5073219;28;20119;-20
2022/01/24 10:04:07;;;;;;;63.67;35.45;;;7.40;63.00;;;;;;5072750;28;20057;-20
2022/01/24 10:06:55;;;;;;;49.00;25.60;;;7.50;62.60;;;;;;5072818;28;20496;-20
2022/01/24 10:09:31;;;;;;;52.35;29.17;;;7.60;62.30;;;;;;5072569;28;20072;-20
2022/01/24 10:12:12;;;;;;;50.90;28.48;;;7.80;61.80;;;;;;5072654;28;20024;-20
2022/01/24 10:17:26;;;;;;;61.20;32.65;;;8.10;61.10;;;;;;5072884;28;20043;-20
2022/01/24 10:19:52;;;;;;;50.28;26.92;;;8.30;60.20;;;;;;5072552;28;20032;-20
2022/01/24 10:22:25;;;;;;;47.88;25.33;;;8.40;60.70;;;;;;5072670;28;20086;-20
2022/01/24 10:24:54;;;;;;;44.63;25.70;;;8.60;60.60;;;;;;5072491;28;20086;-20
2022/01/24 10:27:24;;;;;;;37.17;22.58;;;8.80;59.70;;;;;;5072757;28;20060;-20
2022/01/24 10:30:07;;;;;;;34.63;20.30;;;9.00;59.50;;;;;;5072433;28;20082;-20
2022/01/24 10:32:41;;;;;;;31.85;18.98;;;9.20;60.00;;;;;;5072618;28;20017;-20
2022/01/24 10:35:21;;;;;;;;;;;9.50;59.80;;;;;;5072682;28;20028;-20
2022/01/24 10:37:50;;;;;;;39.33;21.67;;;9.80;57.60;;;;;;5072956;28;20323;-20
2022/01/24 10:40:55;;;;;;;34.28;21.23;;;10.10;58.80;;;;;;5072127;28;20077;-20
2022/01/24 10:43:24;;;;;;;22.70;12.05;;;10.40;58.20;;;;;;5072692;28;20411;-20
2022/01/24 10:45:53;;;;;;;43.65;25.23;;;10.60;58.30;;;;;;5073263;28;20036;-20
2022/01/24 10:48:31;;;;;;;34.13;19.42;;;10.90;56.60;;;;;;5075954;28;20016;-20
2022/01/24 10:51:21;;;;;;;39.15;23.13;;;11.10;57.20;;;;;;5075621;28;20063;-20
2022/01/24 10:53:53;;;;;;;25.05;14.57;;;11.30;56.30;;;;;;5075748;28;20035;-21
2022/01/24 10:56:34;;;;;;;35.38;20.77;;;11.40;56.60;;;;;;5075531;28;20385;-20
2022/01/24 10:59:14;;;;;;;33.42;19.40;;;11.60;56.30;;;;;;5076512;28;20029;-20
2022/01/24 11:01:46;;;;;;;30.02;18.38;;;11.70;56.10;;;;;;5075622;28;20067;-20
2022/01/24 11:04:14;;;;;;;23.00;14.25;;;11.80;55.90;;;;;;5075770;28;20079;-21
2022/01/24 11:06:43;;;;;;;25.65;15.10;;;11.90;56.00;;;;;;5075896;28;20085;-20
2022/01/24 11:09:10;;;;;;;41.95;22.85;;;12.10;55.60;;;;;;5075805;28;20033;-20
2022/01/24 11:11:37;;;;;;;43.00;24.98;;;12.30;54.30;;;;;;5075651;28;20028;-20
2022/01/24 11:14:03;;;;;;;37.10;22.30;;;12.50;54.20;;;;;;5075661;28;20029;-20
2022/01/24 11:16:29;;;;;;;39.67;22.63;;;12.70;53.10;;;;;;5075184;28;20048;-20
2022/01/24 11:18:56;;;;;;;47.30;28.65;;;12.80;53.30;;;;;;5075582;28;20062;-20
2022/01/24 11:21:23;;;;;;;38.28;24.73;;;12.90;53.20;;;;;;5075703;28;20104;-20
2022/01/24 11:23:49;;;;;;;45.83;28.13;;;13.00;52.70;;;;;;5075472;28;20063;-21
2022/01/24 11:26:16;;;;;;;43.63;26.48;;;13.10;52.00;;;;;;5075140;28;20074;-20
2022/01/24 11:28:44;;;;;;;35.25;21.60;;;13.30;52.10;;;;;;5075338;28;20067;-19
2022/01/24 11:31:20;;;;;;;42.03;25.02;;;13.40;52.60;;;;;;5075730;28;20043;-20
2022/01/24 11:34:08;;;;;;;38.05;23.33;;;13.60;52.20;;;;;;5075112;28;20024;-20
2022/01/24 11:36:41;;;;;;;30.30;18.10;;;13.90;50.60;;;;;;5075181;28;20049;-20
2022/01/24 11:39:08;;;;;;;31.93;19.30;;;14.20;51.20;;;;;;5075137;28;20059;-19
2022/01/24 11:41:38;;;;;;;45.28;28.73;;;14.50;50.90;;;;;;5075105;28;20536;-20
2022/01/24 11:44:16;;;;;;;37.33;25.15;;;14.80;49.60;;;;;;5074904;28;20377;-20
2022/01/24 11:46:46;;;;;;;27.20;16.92;;;15.10;49.60;;;;;;5075043;28;20068;-19
2022/01/24 11:49:38;;;;;;;35.70;21.92;;;15.30;49.10;;;;;;5075041;28;20074;-20
2022/01/24 11:52:07;;;;;;;39.08;22.60;;;15.70;46.50;;;;;;5074248;28;20048;-20
2022/01/24 11:57:34;;;;;;;34.35;21.58;;;16.30;48.30;;;;;;5075074;28;20417;-20
2022/01/24 12:00:06;;;;;;;32.47;18.65;;;16.60;45.30;;;;;;5074858;28;20028;-20
2022/01/24 12:02:40;;;;;;;28.65;17.25;;;17.00;46.50;;;;;;5074241;28;20028;-20
2022/01/24 12:05:11;;;;;;;31.02;19.90;;;17.40;46.40;;;;;;5075092;28;20046;-19
2022/01/24 12:08:01;;;;;;;39.03;22.83;;;17.70;45.70;;;;;;5073234;28;20079;-20
2022/01/24 12:10:34;;;;;;;29.30;18.60;;;18.00;42.70;;;;;;5073587;28;20064;-20
2022/01/24 12:13:03;;;;;;;35.58;21.02;;;18.30;44.60;;;;;;5074924;28;20024;-20
2022/01/24 12:15:41;;;;;;;37.40;24.10;;;18.60;44.70;;;;;;5075049;28;20031;-20
2022/01/24 12:18:10;;;;;;;32.53;19.27;;;18.90;43.50;;;;;;5074036;28;20046;-20
2022/01/24 12:20:36;;;;;;;20.90;12.50;;;19.10;43.60;;;;;;5074378;28;20099;-20
2022/01/24 12:23:19;;;;;;;26.13;16.50;;;19.40;43.80;;;;;;5074562;28;20025;-20
2022/01/24 12:26:02;;;;;;;21.10;13.35;;;19.70;43.00;;;;;;5074257;28;20052;-19
2022/01/24 12:28:47;;;;;;;34.08;21.02;;;19.90;42.60;;;;;;5074088;28;20024;-20
2022/01/24 12:31:20;;;;;;;31.30;19.27;;;20.20;41.70;;;;;;5073981;28;20033;-20
2022/01/24 12:33:54;;;;;;;24.25;13.57;;;20.40;42.00;;;;;;5074546;28;20021;-20
2022/01/24 12:36:48;;;;;;;39.40;24.63;;;20.60;42.10;;;;;;5073606;28;20031;-19
2022/01/24 12:39:20;;;;;;;38.80;23.85;;;20.70;39.80;;;;;;5073941;28;20503;-20
2022/01/24 12:41:52;;;;;;;39.90;24.77;;;20.90;40.70;;;;;;5073814;28;20025;-19
2022/01/24 12:47:14;;;;;;;42.17;25.90;;;20.90;40.30;;;;;;5073758;28;20074;-20
2022/01/24 12:49:42;;;;;;;40.50;24.70;;;20.70;40.00;;;;;;5073863;28;20464;-19
2022/01/24 12:52:16;;;;;;;39.63;24.80;;;20.40;40.30;;;;;;5073293;28;20048;-20
2022/01/24 12:54:56;;;;;;;38.33;23.58;;;20.20;40.50;;;;;;5074004;28;20028;-20
2022/01/24 12:57:29;;;;;;;26.98;15.57;;;19.80;39.40;;;;;;5072256;28;20562;-20
2022/01/24 13:00:04;;;;;;;37.47;22.90;;;19.60;41.30;;;;;;5073506;28;20021;-19
2022/01/24 13:02:33;;;;;;;35.90;22.85;;;19.70;40.60;;;;;;5073234;28;20112;-20
2022/01/24 13:05:01;;;;;;;23.45;14.80;;;19.70;41.00;;;;;;5072457;28;20035;-20
2022/01/24 13:07:30;;;;;;;28.90;16.63;;;19.90;41.60;;;;;;5074452;28;20032;-20
2022/01/24 13:10:06;;;;;;;21.33;12.60;;;20.00;41.60;;;;;;5073089;28;20025;-20
2022/01/24 13:12:32;;;;;;;36.70;22.25;;;20.30;41.60;;;;;;5073098;28;20497;-20
2022/01/24 13:15:03;;;;;;;27.73;17.80;;;20.50;40.90;;;;;;5073241;28;20496;-20
2022/01/24 13:25:25;;;;;;;32.53;18.40;;;21.20;40.20;;;;;;5073669;28;20465;-20
2022/01/24 13:27:54;;;;;;;33.10;21.00;;;21.20;40.00;;;;;;5073738;28;20122;-20
2022/01/24 13:30:29;;;;;;;32.95;20.20;;;21.10;40.10;;;;;;5073168;28;20032;-20
2022/01/24 13:32:58;;;;;;;33.67;20.35;;;20.90;40.60;;;;;;5073081;28;20135;-20
2022/01/24 13:35:30;;;;;;;37.30;22.65;;;20.80;40.90;;;;;;5073335;28;20028;-20
2022/01/24 13:38:20;;;;;;;36.05;21.27;;;20.60;40.90;;;;;;5073248;28;20078;-20
2022/01/24 13:43:46;;;;;;;31.15;19.48;;;20.60;41.10;;;;;;5073054;28;20024;-20
2022/01/24 13:46:38;;;;;;;33.30;19.45;;;20.60;40.60;;;;;;5072802;28;20033;-19
2022/01/24 13:49:11;;;;;;;29.33;17.75;;;20.80;39.00;;;;;;5072982;28;20526;-20
2022/01/24 13:51:50;;;;;;;;;;;21.00;40.40;;;;;;5073153;28;20053;-20
2022/01/24 13:54:28;;;;;;;29.98;18.92;;;21.20;37.90;;;;;;5072947;28;19911;-21
2022/01/24 13:56:56;;;;;;;26.10;16.52;;;21.40;39.80;;;;;;5073015;28;20016;-20
2022/01/24 13:59:26;;;;;;;27.08;16.02;;;21.60;40.00;;;;;;5072692;28;20508;-20
2022/01/24 14:02:19;;;;;;;18.40;11.38;;;21.70;39.70;;;;;;5072771;28;20024;-20
2022/01/24 14:04:55;;;;;;;25.20;15.17;;;21.90;39.00;;;;;;5072820;28;20538;-20
2022/01/24 14:07:23;;;;;;;18.83;10.73;;;22.00;39.40;;;;;;5072705;28;20050;-20
2022/01/24 14:09:52;;;;;;;23.08;14.95;;;22.00;39.60;;;;;;5072888;28;20028;-20
2022/01/24 14:12:24;;;;;;;24.35;13.93;;;22.20;39.30;;;;;;5072547;28;20119;-20
2022/01/24 14:15:11;;;;;;;21.75;12.23;;;22.20;39.30;;;;;;5072651;28;20519;-20
2022/01/24 14:17:47;;;;;;;18.50;12.55;;;22.30;38.90;;;;;;5072905;28;20138;-20
2022/01/24 14:23:37;;;;;;;22.50;14.40;;;22.40;38.10;;;;;;5076516;28;20023;-20
2022/01/24 14:26:18;;;;;;;23.30;14.73;;;22.40;38.60;;;;;;5076530;28;20032;-20
2022/01/24 14:28:44;;;;;;;21.20;14.38;;;22.40;37.80;;;;;;5076550;28;20490;-21
2022/01/24 14:31:13;;;;;;;16.33;10.30;;;22.40;38.20;;;;;;5076265;28;20480;-20
2022/01/24 14:33:42;;;;;;;18.75;12.25;;;22.20;38.60;;;;;;5076514;28;20032;-20
2022/01/24 14:36:17;;;;;;;15.23;9.48;;;22.20;38.70;;;;;;5076420;28;20419;-20
2022/01/24 14:38:57;;;;;;;19.27;12.65;;;22.20;38.20;;;;;;5075966;28;20032;-20
2022/01/24 14:41:47;;;;;;;20.38;13.07;;;22.10;37.10;;;;;;5076321;28;20403;-20
2022/01/24 14:47:02;;;;;;;21.50;14.02;;;21.90;38.50;;;;;;5076500;28;20059;-20
2022/01/24 14:49:31;;;;;;;21.33;12.80;;;21.80;38.30;;;;;;5076198;28;20028;-20
2022/01/24 14:52:04;;;;;;;15.88;10.45;;;21.60;38.40;;;;;;5075701;28;20052;-20
2022/01/24 14:54:34;;;;;;;22.98;14.93;;;21.40;39.00;;;;;;5075850;28;20033;-20
2022/01/24 14:57:03;;;;;;;22.23;13.43;;;21.30;39.00;;;;;;5075759;28;20400;-20
2022/01/24 14:59:30;;;;;;;19.05;11.52;;;21.10;38.90;;;;;;5075706;28;20068;-20
2022/01/24 15:01:58;;;;;;;18.70;11.93;;;20.90;39.10;;;;;;5075991;28;20203;-20
2022/01/24 15:04:25;;;;;;;18.75;11.77;;;20.90;39.60;;;;;;5076068;28;20078;-20
2022/01/24 15:06:54;;;;;;;22.02;13.52;;;20.80;39.70;;;;;;5075893;28;20024;-20